createdAt,value
2023-09-19T00:00:59.879Z,15.80
2023-09-19T00:03:26.971Z,15.80
2023-09-19T00:05:54.023Z,15.70
2023-09-19T00:08:25.228Z,15.70
2023-09-19T00:10:52.118Z,15.70
2023-09-19T00:13:19.957Z,15.70
2023-09-19T00:15:51.676Z,15.70
2023-09-19T00:18:22.857Z,15.60
2023-09-19T00:20:52.167Z,15.60
2023-09-19T00:23:20.676Z,15.60
2023-09-19T00:25:48.404Z,15.60
2023-09-19T00:28:17.699Z,15.60
2023-09-19T00:30:45.228Z,15.50
2023-09-19T00:33:17.382Z,15.50
2023-09-19T00:35:54.781Z,15.50
2023-09-19T00:38:24.026Z,15.50
2023-09-19T00:40:54.468Z,15.40
2023-09-19T00:43:23.432Z,15.40
2023-09-19T00:45:52.713Z,15.40
2023-09-19T00:48:21.641Z,15.30
2023-09-19T00:50:50.168Z,15.30
2023-09-19T00:53:21.683Z,15.30
2023-09-19T00:55:50.439Z,15.30
2023-09-19T00:58:19.547Z,15.30
2023-09-19T01:00:47.780Z,15.30
2023-09-19T01:03:15.055Z,15.20
2023-09-19T01:05:43.415Z,15.20
2023-09-19T01:08:12.321Z,15.20
2023-09-19T01:11:09.567Z,15.10
2023-09-19T01:13:58.267Z,15.10
2023-09-19T01:16:40.325Z,15.10
2023-09-19T01:19:19.547Z,15.10
2023-09-19T01:22:07.134Z,15.00
2023-09-19T01:25:07.027Z,15.00
2023-09-19T01:27:45.446Z,15.00
2023-09-19T01:30:16.135Z,15.00
2023-09-19T01:32:44.353Z,15.00
2023-09-19T01:35:14.067Z,14.90
2023-09-19T01:37:44.820Z,14.90
2023-09-19T01:40:18.731Z,14.90
2023-09-19T01:42:49.020Z,14.90
2023-09-19T01:45:23.510Z,14.80
2023-09-19T01:47:56.712Z,14.90
2023-09-19T01:50:42.058Z,14.80
2023-09-19T01:53:21.622Z,14.80
2023-09-19T01:55:50.659Z,14.80
2023-09-19T01:58:36.819Z,14.80
2023-09-19T02:01:06.919Z,14.80
2023-09-19T02:03:36.299Z,14.80
2023-09-19T02:06:06.349Z,14.80
2023-09-19T02:08:34.896Z,14.80
2023-09-19T02:11:01.774Z,14.80
2023-09-19T02:13:29.265Z,14.80
2023-09-19T02:15:56.832Z,14.80
2023-09-19T02:18:23.922Z,14.70
2023-09-19T02:20:52.242Z,14.80
2023-09-19T02:23:19.249Z,14.70
2023-09-19T02:25:53.625Z,14.70
2023-09-19T02:28:23.294Z,14.70
2023-09-19T02:30:51.328Z,14.70
2023-09-19T02:33:18.797Z,14.60
2023-09-19T02:35:45.976Z,14.60
2023-09-19T02:38:13.377Z,14.60
2023-09-19T02:40:40.312Z,14.60
2023-09-19T02:43:09.309Z,14.60
2023-09-19T02:45:36.498Z,14.60
2023-09-19T02:48:03.883Z,14.60
2023-09-19T02:50:31.059Z,14.60
2023-09-19T02:52:57.981Z,14.60
2023-09-19T02:55:25.159Z,14.60
2023-09-19T02:57:55.671Z,14.60
2023-09-19T03:00:23.668Z,14.70
2023-09-19T03:02:50.751Z,14.60
2023-09-19T03:05:17.845Z,14.60
2023-09-19T03:07:46.819Z,14.60
2023-09-19T03:10:16.259Z,14.60
2023-09-19T03:12:43.521Z,14.60
2023-09-19T03:15:11.146Z,14.60
2023-09-19T03:17:38.374Z,14.60
2023-09-19T03:20:09.401Z,14.50
2023-09-19T03:22:36.457Z,14.50
2023-09-19T03:25:04.670Z,14.50
2023-09-19T03:27:31.639Z,14.50
2023-09-19T03:29:59.151Z,14.50
2023-09-19T03:32:26.229Z,14.40
2023-09-19T03:34:53.467Z,14.40
2023-09-19T03:37:20.735Z,14.40
2023-09-19T03:39:47.701Z,14.40
2023-09-19T03:42:14.525Z,14.40
2023-09-19T03:44:41.353Z,14.40
2023-09-19T03:47:08.301Z,14.40
2023-09-19T03:49:35.545Z,14.40
2023-09-19T03:52:02.406Z,14.40
2023-09-19T03:54:29.260Z,14.30
2023-09-19T03:56:56.105Z,14.30
2023-09-19T03:59:23.189Z,14.30
2023-09-19T04:01:51.246Z,14.30
2023-09-19T04:04:19.936Z,14.30
2023-09-19T04:06:46.819Z,14.30
2023-09-19T04:09:14.473Z,14.30
2023-09-19T04:11:41.542Z,14.30
2023-09-19T04:14:08.395Z,14.30
2023-09-19T04:16:35.408Z,14.20
2023-09-19T04:19:03.588Z,14.20
2023-09-19T04:21:30.520Z,14.20
2023-09-19T04:23:57.386Z,14.20
2023-09-19T04:26:26.617Z,14.10
2023-09-19T04:28:53.550Z,14.10
2023-09-19T04:31:21.474Z,14.10
2023-09-19T04:33:48.368Z,14.00
2023-09-19T04:36:34.970Z,14.10
2023-09-19T04:39:05.942Z,14.00
2023-09-19T04:41:32.849Z,14.00
2023-09-19T04:43:59.873Z,14.00
2023-09-19T04:46:26.867Z,14.00
2023-09-19T04:48:53.729Z,13.90
2023-09-19T04:51:21.626Z,14.00
2023-09-19T04:53:49.144Z,14.00
2023-09-19T04:56:16.290Z,13.90
2023-09-19T04:58:43.298Z,13.90
2023-09-19T05:01:13.198Z,14.00
2023-09-19T05:03:40.146Z,13.90
2023-09-19T05:06:07.110Z,13.90
2023-09-19T05:08:33.994Z,14.00
2023-09-19T05:11:03.373Z,13.90
2023-09-19T05:13:30.248Z,13.90
2023-09-19T05:16:03.203Z,13.90
2023-09-19T05:18:30.038Z,13.90
2023-09-19T05:20:57.176Z,13.90
2023-09-19T05:23:24.234Z,13.90
2023-09-19T05:25:52.132Z,13.90
2023-09-19T05:28:19.094Z,14.00
2023-09-19T05:30:48.989Z,14.00
2023-09-19T05:33:16.684Z,14.00
2023-09-19T05:35:43.443Z,14.00
2023-09-19T05:38:10.455Z,14.00
2023-09-19T05:40:38.638Z,14.00
2023-09-19T05:43:07.014Z,14.00
2023-09-19T05:45:33.993Z,14.00
2023-09-19T05:48:12.991Z,14.00
2023-09-19T05:50:40.739Z,14.00
2023-09-19T05:53:07.739Z,14.00
2023-09-19T05:55:34.776Z,14.00
2023-09-19T05:58:01.705Z,14.00
2023-09-19T06:00:30.122Z,14.00
2023-09-19T06:02:59.034Z,14.00
2023-09-19T06:05:32.959Z,14.10
2023-09-19T06:08:08.687Z,14.10
2023-09-19T06:10:36.134Z,14.10
2023-09-19T06:13:05.626Z,14.20
2023-09-19T06:15:34.375Z,14.20
2023-09-19T06:18:03.459Z,14.30
2023-09-19T06:20:30.761Z,14.30
2023-09-19T06:22:58.211Z,14.40
2023-09-19T06:25:25.162Z,14.40
2023-09-19T06:27:55.798Z,14.40
2023-09-19T06:30:25.561Z,14.50
2023-09-19T06:32:59.686Z,14.60
2023-09-19T06:35:27.585Z,14.60
2023-09-19T06:37:54.754Z,14.60
2023-09-19T06:40:22.140Z,14.70
2023-09-19T06:42:53.951Z,14.70
2023-09-19T06:45:22.860Z,14.60
2023-09-19T06:47:51.918Z,14.70
2023-09-19T06:50:20.863Z,14.70
2023-09-19T06:52:51.660Z,14.70
2023-09-19T06:55:21.122Z,14.80
2023-09-19T06:57:48.921Z,14.80
2023-09-19T07:00:17.070Z,14.90
2023-09-19T07:02:44.158Z,14.90
2023-09-19T07:05:11.364Z,14.90
2023-09-19T07:07:38.362Z,15.00
2023-09-19T07:10:12.121Z,15.00
2023-09-19T07:12:39.174Z,15.00
2023-09-19T07:15:07.046Z,15.00
2023-09-19T07:17:34.383Z,15.10
2023-09-19T07:20:01.455Z,15.10
2023-09-19T07:22:28.789Z,15.20
2023-09-19T07:24:55.861Z,15.20
2023-09-19T07:27:22.811Z,15.20
2023-09-19T07:29:52.243Z,15.30
2023-09-19T07:32:21.046Z,15.30
2023-09-19T07:34:48.214Z,15.30
2023-09-19T07:37:16.729Z,15.30
2023-09-19T07:39:44.307Z,15.40
2023-09-19T07:42:12.652Z,15.40
2023-09-19T07:44:39.557Z,15.50
2023-09-19T07:47:06.496Z,15.60
2023-09-19T07:49:33.420Z,15.60
2023-09-19T07:52:00.448Z,15.50
2023-09-19T07:54:28.065Z,15.60
2023-09-19T07:56:56.610Z,15.60
2023-09-19T07:59:23.703Z,15.70
2023-09-19T08:01:50.584Z,15.70
2023-09-19T08:04:20.627Z,15.70
2023-09-19T08:06:47.623Z,15.80
2023-09-19T08:09:23.748Z,15.80
2023-09-19T08:11:52.459Z,15.90
2023-09-19T08:14:19.295Z,16.00
2023-09-19T08:16:46.367Z,16.00
2023-09-19T08:19:13.347Z,16.10
2023-09-19T08:21:40.274Z,16.10
2023-09-19T08:24:07.289Z,16.20
2023-09-19T08:26:34.397Z,16.20
2023-09-19T08:29:06.926Z,16.30
2023-09-19T08:31:37.031Z,16.30
2023-09-19T08:34:04.315Z,16.30
2023-09-19T08:36:34.368Z,16.40
2023-09-19T08:39:01.413Z,16.40
2023-09-19T08:41:28.323Z,16.40
2023-09-19T08:43:55.601Z,16.40
2023-09-19T08:46:25.417Z,16.50
2023-09-19T08:49:06.340Z,16.60
2023-09-19T08:51:49.576Z,16.70
2023-09-19T08:54:30.382Z,16.70
2023-09-19T08:57:03.421Z,16.80
2023-09-19T08:59:31.217Z,16.80
2023-09-19T09:01:59.720Z,16.90
2023-09-19T09:04:27.404Z,16.90
2023-09-19T09:06:56.263Z,16.90
2023-09-19T09:09:23.209Z,17.00
2023-09-19T09:11:54.078Z,17.00
2023-09-19T09:14:23.001Z,17.10
2023-09-19T09:16:50.183Z,17.20
2023-09-19T09:19:25.107Z,17.20
2023-09-19T09:21:52.633Z,17.30
2023-09-19T09:24:30.289Z,17.30
2023-09-19T09:26:59.817Z,17.40
2023-09-19T09:29:51.969Z,17.50
2023-09-19T09:32:23.814Z,17.70
2023-09-19T09:35:01.537Z,17.70
2023-09-19T09:37:31.426Z,17.60
2023-09-19T09:40:20.580Z,17.70
2023-09-19T09:42:50.506Z,17.80
2023-09-19T09:45:27.095Z,17.80
2023-09-19T09:47:57.312Z,18.00
2023-09-19T09:50:52.520Z,18.20
2023-09-19T09:53:33.067Z,18.40
2023-09-19T09:56:07.064Z,18.50
2023-09-19T09:58:41.534Z,18.30
2023-09-19T10:01:16.656Z,18.20
2023-09-19T10:03:48.525Z,18.30
2023-09-19T10:06:26.550Z,18.30
2023-09-19T10:09:30.579Z,18.50
2023-09-19T10:12:13.833Z,18.80
2023-09-19T10:14:46.338Z,18.60
2023-09-19T10:17:17.058Z,18.80
2023-09-19T10:19:51.921Z,19.10
2023-09-19T10:22:23.114Z,19.40
2023-09-19T10:25:02.785Z,19.70
2023-09-19T10:27:38.106Z,20.40
2023-09-19T10:30:08.598Z,20.60
2023-09-19T10:32:37.135Z,20.80
2023-09-19T10:35:07.954Z,20.80
2023-09-19T10:37:38.960Z,20.60
2023-09-19T10:40:09.859Z,20.60
2023-09-19T10:42:39.503Z,20.30
2023-09-19T10:45:14.468Z,19.90
2023-09-19T10:47:41.949Z,19.70
2023-09-19T10:50:11.041Z,19.40
2023-09-19T10:52:41.675Z,19.40
2023-09-19T10:55:21.109Z,19.30
2023-09-19T10:57:49.384Z,19.30
2023-09-19T11:00:25.122Z,19.40
2023-09-19T11:03:12.835Z,19.60
2023-09-19T11:05:41.434Z,20.00
2023-09-19T11:08:09.639Z,20.20
2023-09-19T11:10:52.559Z,20.20
2023-09-19T11:13:31.997Z,20.10
2023-09-19T11:16:02.083Z,20.20
2023-09-19T11:18:44.985Z,20.20
2023-09-19T11:21:33.445Z,20.30
2023-09-19T11:24:28.715Z,20.30
2023-09-19T11:27:13.137Z,20.20
2023-09-19T11:29:40.974Z,20.10
2023-09-19T11:32:08.101Z,20.20
2023-09-19T11:34:41.004Z,20.20
2023-09-19T11:37:12.716Z,20.20
2023-09-19T11:39:39.869Z,20.30
2023-09-19T11:42:42.615Z,20.40
2023-09-19T11:45:47.059Z,20.30
2023-09-19T11:48:19.560Z,20.40
2023-09-19T11:50:48.274Z,20.50
2023-09-19T11:53:17.010Z,20.60
2023-09-19T11:55:44.827Z,20.70
2023-09-19T11:58:19.609Z,20.80
2023-09-19T12:00:46.841Z,20.70
2023-09-19T12:03:19.609Z,20.60
2023-09-19T12:05:46.701Z,20.70
2023-09-19T12:08:17.379Z,20.60
2023-09-19T12:10:49.264Z,20.60
2023-09-19T12:13:20.130Z,20.40
2023-09-19T12:15:49.071Z,20.40
2023-09-19T12:18:31.948Z,20.40
2023-09-19T12:20:59.571Z,20.50
2023-09-19T12:23:26.892Z,20.50
2023-09-19T12:25:55.048Z,20.60
2023-09-19T12:28:25.046Z,20.50
2023-09-19T12:30:53.481Z,20.50
2023-09-19T12:33:22.130Z,20.50
2023-09-19T12:35:49.067Z,20.70
2023-09-19T12:38:36.267Z,20.80
2023-09-19T12:41:03.859Z,20.90
2023-09-19T12:43:34.184Z,20.90
2023-09-19T12:46:01.867Z,20.90
2023-09-19T12:48:33.161Z,20.90
2023-09-19T12:51:14.054Z,21.00
2023-09-19T12:53:44.853Z,21.00
2023-09-19T12:56:15.125Z,21.10
2023-09-19T12:58:55.197Z,21.20
2023-09-19T13:01:30.156Z,21.20
2023-09-19T13:04:20.293Z,21.30
2023-09-19T13:06:50.142Z,21.50
2023-09-19T13:09:18.384Z,21.50
2023-09-19T13:11:47.010Z,21.60
2023-09-19T13:14:20.004Z,21.70
2023-09-19T13:17:20.521Z,21.80
2023-09-19T13:19:56.486Z,21.80
2023-09-19T13:22:43.811Z,21.80
2023-09-19T13:25:19.213Z,21.80
2023-09-19T13:27:55.523Z,21.80
2023-09-19T13:30:26.846Z,21.90
2023-09-19T13:33:06.882Z,21.90
2023-09-19T13:35:33.955Z,21.90
2023-09-19T13:38:02.056Z,22.00
2023-09-19T13:40:31.957Z,21.90
2023-09-19T13:42:58.930Z,21.90
2023-09-19T13:45:28.073Z,22.00
2023-09-19T13:47:55.184Z,22.00
2023-09-19T13:50:25.210Z,22.10
2023-09-19T13:52:52.812Z,22.10
2023-09-19T13:55:22.813Z,22.00
2023-09-19T13:57:55.656Z,21.90
2023-09-19T14:00:23.981Z,21.90
2023-09-19T14:02:51.985Z,22.10
2023-09-19T14:05:20.035Z,22.30
2023-09-19T14:07:47.643Z,22.20
2023-09-19T14:10:14.647Z,22.20
2023-09-19T14:12:45.901Z,22.10
2023-09-19T14:15:12.938Z,21.80
2023-09-19T14:17:40.372Z,21.70
2023-09-19T14:20:08.308Z,21.60
2023-09-19T14:22:38.509Z,21.70
2023-09-19T14:25:06.513Z,21.80
2023-09-19T14:27:33.379Z,21.70
2023-09-19T14:30:00.308Z,21.60
2023-09-19T14:32:27.200Z,21.60
2023-09-19T14:34:54.107Z,21.40
2023-09-19T14:37:23.962Z,21.20
2023-09-19T14:39:50.865Z,21.00
2023-09-19T14:42:18.727Z,21.00
2023-09-19T14:44:46.043Z,21.00
2023-09-19T14:47:14.722Z,21.10
2023-09-19T14:49:41.987Z,21.00
2023-09-19T14:52:10.577Z,21.00
2023-09-19T14:54:42.530Z,20.90
2023-09-19T14:57:09.927Z,20.90
2023-09-19T14:59:38.236Z,20.80
2023-09-19T15:02:06.007Z,20.80
2023-09-19T15:04:33.265Z,20.90
2023-09-19T15:07:00.655Z,21.00
2023-09-19T15:09:27.632Z,20.90
2023-09-19T15:11:55.014Z,20.80
2023-09-19T15:14:23.149Z,20.70
2023-09-19T15:16:50.264Z,20.70
2023-09-19T15:19:18.501Z,20.60
2023-09-19T15:21:45.511Z,20.60
2023-09-19T15:24:12.377Z,20.50
2023-09-19T15:26:44.634Z,20.40
2023-09-19T15:29:11.591Z,20.40
2023-09-19T15:31:39.114Z,20.30
2023-09-19T15:34:09.855Z,20.20
2023-09-19T15:36:38.929Z,20.10
2023-09-19T15:39:08.500Z,20.00
2023-09-19T15:41:38.387Z,19.90
2023-09-19T15:44:11.547Z,19.80
2023-09-19T15:46:38.680Z,19.70
2023-09-19T15:49:05.671Z,19.60
2023-09-19T15:51:32.503Z,19.60
2023-09-19T15:54:01.366Z,19.60
2023-09-19T15:56:28.418Z,19.50
2023-09-19T15:58:56.292Z,19.50
2023-09-19T16:01:24.369Z,19.50
2023-09-19T16:03:57.302Z,19.50
2023-09-19T16:06:32.032Z,19.50
2023-09-19T16:09:02.831Z,19.50
2023-09-19T16:11:29.765Z,19.50
2023-09-19T16:13:57.208Z,19.50
2023-09-19T16:16:25.341Z,19.40
2023-09-19T16:19:04.837Z,19.40
2023-09-19T16:21:33.199Z,19.40
2023-09-19T16:24:00.826Z,19.50
2023-09-19T16:26:29.921Z,19.40
2023-09-19T16:29:01.604Z,19.40
2023-09-19T16:31:33.835Z,19.30
2023-09-19T16:34:01.080Z,19.20
2023-09-19T16:36:29.437Z,19.20
2023-09-19T16:38:56.291Z,19.20
2023-09-19T16:41:23.403Z,19.20
2023-09-19T16:43:50.464Z,19.10
2023-09-19T16:46:18.155Z,19.10
2023-09-19T16:51:17.859Z,18.90
2023-09-19T16:53:46.761Z,19.00
2023-09-19T16:56:16.048Z,18.90
2023-09-19T16:58:45.189Z,18.90
2023-09-19T17:01:14.380Z,18.80
2023-09-19T17:03:42.261Z,18.80
2023-09-19T17:06:13.398Z,18.80
2023-09-19T17:08:41.268Z,18.80
2023-09-19T17:11:10.849Z,18.70
2023-09-19T17:13:38.358Z,18.70
2023-09-19T17:16:08.873Z,18.70
2023-09-19T17:18:36.773Z,18.60
2023-09-19T17:21:06.502Z,18.60
2023-09-19T17:23:34.129Z,18.60
2023-09-19T17:26:03.420Z,18.60
2023-09-19T17:28:31.154Z,18.50
2023-09-19T17:30:58.654Z,18.50
2023-09-19T17:33:27.492Z,18.50
2023-09-19T17:36:08.344Z,18.50
2023-09-19T17:38:35.284Z,18.50
2023-09-19T17:41:06.481Z,18.40
2023-09-19T17:43:35.210Z,18.40
2023-09-19T17:46:18.295Z,18.40
2023-09-19T17:48:47.406Z,18.40
2023-09-19T17:51:17.645Z,18.30
2023-09-19T17:53:45.160Z,18.30
2023-09-19T17:56:18.178Z,18.30
2023-09-19T17:58:55.430Z,18.30
2023-09-19T18:01:28.426Z,18.40
2023-09-19T18:04:00.223Z,18.30
2023-09-19T18:06:28.460Z,18.30
2023-09-19T18:08:58.077Z,18.30
2023-09-19T18:11:27.364Z,18.30
2023-09-19T18:13:56.510Z,18.30
2023-09-19T18:16:25.784Z,18.40
2023-09-19T18:18:53.716Z,18.40
2023-09-19T18:21:21.615Z,18.40
2023-09-19T18:24:10.416Z,18.40
2023-09-19T18:26:39.063Z,18.40
2023-09-19T18:29:06.846Z,18.50
2023-09-19T18:31:35.032Z,18.40
2023-09-19T18:34:02.578Z,18.50
2023-09-19T18:36:29.577Z,18.50
2023-09-19T18:38:57.448Z,18.50
2023-09-19T18:41:24.403Z,18.50
2023-09-19T18:43:51.305Z,18.50
2023-09-19T18:46:18.516Z,18.50
2023-09-19T18:48:46.505Z,18.50
2023-09-19T18:51:16.198Z,18.50
2023-09-19T18:53:53.454Z,18.50
2023-09-19T18:56:25.263Z,18.50
2023-09-19T18:58:52.549Z,18.50
2023-09-19T19:01:20.178Z,18.50
2023-09-19T19:03:47.815Z,18.50
2023-09-19T19:06:16.672Z,18.50
2023-09-19T19:08:45.603Z,18.50
2023-09-19T19:11:17.969Z,18.50
2023-09-19T19:13:47.857Z,18.40
2023-09-19T19:16:16.653Z,18.40
2023-09-19T19:18:44.997Z,18.40
2023-09-19T19:21:14.037Z,18.40
2023-09-19T19:23:41.589Z,18.40
2023-09-19T19:26:10.191Z,18.40
2023-09-19T19:28:43.720Z,18.30
2023-09-19T19:31:11.360Z,18.30
2023-09-19T19:33:39.792Z,18.20
2023-09-19T19:36:09.483Z,18.20
2023-09-19T19:38:38.333Z,18.20
2023-09-19T19:41:05.542Z,18.30
2023-09-19T19:43:32.863Z,18.20
2023-09-19T19:46:06.557Z,18.30
2023-09-19T19:48:42.536Z,18.20
2023-09-19T19:51:11.577Z,18.20
2023-09-19T19:53:39.515Z,18.20
2023-09-19T19:56:07.619Z,18.20
2023-09-19T19:58:36.288Z,18.20
2023-09-19T20:01:05.509Z,18.20
2023-09-19T20:03:34.485Z,18.20
2023-09-19T20:06:01.950Z,18.20
2023-09-19T20:08:29.156Z,18.20
2023-09-19T20:11:05.743Z,18.20
2023-09-19T20:13:33.005Z,18.20
2023-09-19T20:16:00.741Z,18.20
2023-09-19T20:18:28.135Z,18.20
2023-09-19T20:20:56.867Z,18.20
2023-09-19T20:23:23.966Z,18.20
2023-09-19T20:25:51.920Z,18.20
2023-09-19T20:28:19.327Z,18.20
2023-09-19T20:30:46.201Z,18.20
2023-09-19T20:33:13.881Z,18.10
2023-09-19T20:35:42.023Z,18.20
2023-09-19T20:38:11.452Z,18.10
2023-09-19T20:40:41.671Z,18.10
2023-09-19T20:43:08.585Z,18.10
2023-09-19T20:45:41.061Z,18.00
2023-09-19T20:48:09.195Z,18.10
2023-09-19T20:50:36.473Z,18.10
2023-09-19T20:53:04.726Z,18.00
2023-09-19T20:55:31.695Z,18.00
2023-09-19T20:57:59.682Z,18.00
2023-09-19T21:00:26.550Z,18.00
2023-09-19T21:02:55.328Z,18.00
2023-09-19T21:05:22.326Z,18.00
2023-09-19T21:07:49.425Z,18.00
2023-09-19T21:10:16.444Z,18.00
2023-09-19T21:12:43.389Z,18.00
2023-09-19T21:15:10.460Z,18.00
2023-09-19T21:17:43.852Z,18.00
2023-09-19T21:20:17.483Z,17.90
2023-09-19T21:22:44.424Z,18.00
2023-09-19T21:25:11.306Z,17.90
2023-09-19T21:27:38.160Z,17.90
2023-09-19T21:30:05.852Z,17.90
2023-09-19T21:32:32.965Z,17.90
2023-09-19T21:35:01.892Z,17.90
2023-09-19T21:37:29.892Z,17.90
2023-09-19T21:39:56.894Z,17.80
2023-09-19T21:42:23.953Z,17.80
2023-09-19T21:44:50.963Z,17.80
2023-09-19T21:47:17.948Z,17.70
2023-09-19T21:49:48.129Z,17.70
2023-09-19T21:52:15.113Z,17.70
2023-09-19T21:54:42.253Z,17.70
2023-09-19T21:57:09.113Z,17.70
2023-09-19T21:59:36.073Z,17.70
2023-09-19T22:02:03.116Z,17.70
2023-09-19T22:04:31.148Z,17.60
2023-09-19T22:06:58.484Z,17.60
2023-09-19T22:09:25.336Z,17.60
2023-09-19T22:11:52.715Z,17.50
2023-09-19T22:14:19.653Z,17.50
2023-09-19T22:16:48.970Z,17.40
2023-09-19T22:19:16.968Z,17.40
2023-09-19T22:21:47.746Z,17.40
2023-09-19T22:24:16.688Z,17.40
2023-09-19T22:26:46.749Z,17.30
2023-09-19T22:29:14.262Z,17.30
2023-09-19T22:31:43.521Z,17.30
2023-09-19T22:34:12.760Z,17.40
2023-09-19T22:36:43.435Z,17.30
2023-09-19T22:39:17.562Z,17.30
2023-09-19T23:13:41.685Z,17.10
2023-09-19T23:16:08.623Z,17.00
2023-09-19T23:18:37.086Z,17.10
2023-09-19T23:21:22.804Z,17.10
2023-09-19T23:23:49.994Z,17.20
2023-09-19T23:26:16.883Z,17.20
2023-09-19T23:28:44.406Z,17.20
2023-09-19T23:31:11.454Z,17.30
2023-09-19T23:33:38.474Z,17.30
2023-09-19T23:36:09.802Z,17.30
2023-09-19T23:38:39.032Z,17.30
2023-09-19T23:41:12.108Z,17.30
2023-09-19T23:43:39.654Z,17.30
2023-09-19T23:46:07.983Z,17.40
2023-09-19T23:48:41.491Z,17.40
2023-09-19T23:51:10.405Z,17.40
2023-09-19T23:53:37.928Z,17.40
2023-09-19T23:56:14.136Z,17.50
2023-09-19T23:58:43.583Z,17.50
